sensor_id;sensor_type;location;lat;lon;timestamp;temperature;humidity
9544;DHT22;30418;51.45933468;7.33152330;2023-02-15T00:00:29;10.70;55.30
9544;DHT22;30418;51.45933468;7.33152330;2023-02-15T00:02:58;10.60;55.10
9544;DHT22;30418;51.45933468;7.33152330;2023-02-15T00:05:27;10.60;55.20
9544;DHT22;30418;51.45933468;7.33152330;2023-02-15T00:07:56;10.60;55.10
9544;DHT22;30418;51.45933468;7.33152330;2023-02-15T00:10:24;10.60;55.20
9544;DHT22;30418;51.45933468;7.33152330;2023-02-15T00:12:53;10.60;55.10
9544;DHT22;30418;51.45933468;7.33152330;2023-02-15T00:15:22;10.60;55.10
9544;DHT22;30418;51.45933468;7.33152330;2023-02-15T00:17:52;10.50;55.10
9544;DHT22;30418;51.45933468;7.33152330;2023-02-15T00:20:21;10.50;55.10
9544;DHT22;30418;51.45933468;7.33152330;2023-02-15T00:22:50;10.50;55.10
9544;DHT22;30418;51.45933468;7.33152330;2023-02-15T00:25:18;10.50;55.10
9544;DHT22;30418;51.45933468;7.33152330;2023-02-15T00:27:46;10.50;55.10
9544;DHT22;30418;51.45933468;7.33152330;2023-02-15T00:30:16;10.50;55.10
9544;DHT22;30418;51.45933468;7.33152330;2023-02-15T00:32:47;10.40;55.00
9544;DHT22;30418;51.45933468;7.33152330;2023-02-15T00:35:17;10.40;55.00
9544;DHT22;30418;51.45933468;7.33152330;2023-02-15T00:37:45;10.40;55.00
9544;DHT22;30418;51.45933468;7.33152330;2023-02-15T00:40:14;10.40;55.00
9544;DHT22;30418;51.45933468;7.33152330;2023-02-15T00:42:43;10.40;55.00
9544;DHT22;30418;51.45933468;7.33152330;2023-02-15T00:45:11;10.40;55.00
9544;DHT22;30418;51.45933468;7.33152330;2023-02-15T00:47:43;10.40;55.10
9544;DHT22;30418;51.45933468;7.33152330;2023-02-15T00:50:11;10.30;55.00
9544;DHT22;30418;51.45933468;7.33152330;2023-02-15T00:52:41;10.30;55.00
9544;DHT22;30418;51.45933468;7.33152330;2023-02-15T00:55:09;10.30;55.00
9544;DHT22;30418;51.45933468;7.33152330;2023-02-15T00:57:38;10.30;55.00
9544;DHT22;30418;51.45933468;7.33152330;2023-02-15T01:00:07;10.30;55.00
9544;DHT22;30418;51.45933468;7.33152330;2023-02-15T01:02:36;10.30;55.00
9544;DHT22;30418;51.45933468;7.33152330;2023-02-15T01:05:05;10.20;55.00
9544;DHT22;30418;51.45933468;7.33152330;2023-02-15T01:07:34;10.20;55.00
9544;DHT22;30418;51.45933468;7.33152330;2023-02-15T01:10:05;10.20;55.00
9544;DHT22;30418;51.45933468;7.33152330;2023-02-15T01:12:34;10.20;55.00
9544;DHT22;30418;51.45933468;7.33152330;2023-02-15T01:15:03;10.20;55.00
9544;DHT22;30418;51.45933468;7.33152330;2023-02-15T01:17:32;10.20;55.00
9544;DHT22;30418;51.45933468;7.33152330;2023-02-15T01:20:04;10.10;55.00
9544;DHT22;30418;51.45933468;7.33152330;2023-02-15T01:22:33;10.10;55.00
9544;DHT22;30418;51.45933468;7.33152330;2023-02-15T01:25:02;10.10;55.00
9544;DHT22;30418;51.45933468;7.33152330;2023-02-15T01:27:32;10.10;55.00
9544;DHT22;30418;51.45933468;7.33152330;2023-02-15T01:30:00;10.10;55.00
9544;DHT22;30418;51.45933468;7.33152330;2023-02-15T01:32:31;10.10;55.00
9544;DHT22;30418;51.45933468;7.33152330;2023-02-15T01:35:00;10.10;55.10
9544;DHT22;30418;51.45933468;7.33152330;2023-02-15T01:37:30;10.10;55.00
9544;DHT22;30418;51.45933468;7.33152330;2023-02-15T01:39:59;10.00;55.00
9544;DHT22;30418;51.45933468;7.33152330;2023-02-15T01:42:31;10.00;55.00
9544;DHT22;30418;51.45933468;7.33152330;2023-02-15T01:45:01;10.10;55.00
9544;DHT22;30418;51.45933468;7.33152330;2023-02-15T01:47:33;10.10;55.00
9544;DHT22;30418;51.45933468;7.33152330;2023-02-15T01:50:10;10.00;55.00
9544;DHT22;30418;51.45933468;7.33152330;2023-02-15T01:52:44;10.00;55.00
9544;DHT22;30418;51.45933468;7.33152330;2023-02-15T01:55:14;10.00;55.00
9544;DHT22;30418;51.45933468;7.33152330;2023-02-15T01:57:45;10.00;55.10
9544;DHT22;30418;51.45933468;7.33152330;2023-02-15T02:00:15;9.90;55.80
9544;DHT22;30418;51.45933468;7.33152330;2023-02-15T02:02:56;9.90;55.80
9544;DHT22;30418;51.45933468;7.33152330;2023-02-15T02:05:25;9.90;55.80
9544;DHT22;30418;51.45933468;7.33152330;2023-02-15T02:07:57;9.80;55.90
9544;DHT22;30418;51.45933468;7.33152330;2023-02-15T02:10:27;9.90;55.90
9544;DHT22;30418;51.45933468;7.33152330;2023-02-15T02:12:59;9.90;55.90
9544;DHT22;30418;51.45933468;7.33152330;2023-02-15T02:15:40;9.80;55.90
9544;DHT22;30418;51.45933468;7.33152330;2023-02-15T02:18:25;9.80;55.90
9544;DHT22;30418;51.45933468;7.33152330;2023-02-15T02:24:23;9.80;55.90
9544;DHT22;30418;51.45933468;7.33152330;2023-02-15T02:27:23;9.80;55.90
9544;DHT22;30418;51.45933468;7.33152330;2023-02-15T02:30:30;9.80;56.00
9544;DHT22;30418;51.45933468;7.33152330;2023-02-15T02:33:17;9.70;55.90
9544;DHT22;30418;51.45933468;7.33152330;2023-02-15T02:36:05;9.70;55.90
9544;DHT22;30418;51.45933468;7.33152330;2023-02-15T02:38:46;9.70;56.00
9544;DHT22;30418;51.45933468;7.33152330;2023-02-15T02:41:28;9.70;56.00
9544;DHT22;30418;51.45933468;7.33152330;2023-02-15T02:44:07;9.60;56.00
9544;DHT22;30418;51.45933468;7.33152330;2023-02-15T02:46:54;9.60;56.00
9544;DHT22;30418;51.45933468;7.33152330;2023-02-15T02:49:35;9.60;56.00
9544;DHT22;30418;51.45933468;7.33152330;2023-02-15T02:52:07;9.60;56.00
9544;DHT22;30418;51.45933468;7.33152330;2023-02-15T02:55:05;9.60;56.10
9544;DHT22;30418;51.45933468;7.33152330;2023-02-15T02:57:43;9.60;56.10
9544;DHT22;30418;51.45933468;7.33152330;2023-02-15T03:00:19;9.50;56.00
9544;DHT22;30418;51.45933468;7.33152330;2023-02-15T03:02:53;9.50;56.10
9544;DHT22;30418;51.45933468;7.33152330;2023-02-15T03:05:27;9.50;56.10
9544;DHT22;30418;51.45933468;7.33152330;2023-02-15T03:07:58;9.50;56.10
9544;DHT22;30418;51.45933468;7.33152330;2023-02-15T03:10:34;9.50;56.10
9544;DHT22;30418;51.45933468;7.33152330;2023-02-15T03:13:04;9.40;56.10
9544;DHT22;30418;51.45933468;7.33152330;2023-02-15T03:15:36;9.50;56.20
9544;DHT22;30418;51.45933468;7.33152330;2023-02-15T03:18:28;9.40;56.10
9544;DHT22;30418;51.45933468;7.33152330;2023-02-15T03:21:01;9.40;56.20
9544;DHT22;30418;51.45933468;7.33152330;2023-02-15T03:23:32;9.40;56.20
9544;DHT22;30418;51.45933468;7.33152330;2023-02-15T03:26:05;9.40;56.20
9544;DHT22;30418;51.45933468;7.33152330;2023-02-15T03:28:40;9.40;56.40
9544;DHT22;30418;51.45933468;7.33152330;2023-02-15T03:31:12;9.30;56.20
9544;DHT22;30418;51.45933468;7.33152330;2023-02-15T03:33:53;9.30;56.20
9544;DHT22;30418;51.45933468;7.33152330;2023-02-15T03:36:28;9.30;56.30
9544;DHT22;30418;51.45933468;7.33152330;2023-02-15T03:39:11;9.30;56.30
9544;DHT22;30418;51.45933468;7.33152330;2023-02-15T03:41:48;9.30;56.30
9544;DHT22;30418;51.45933468;7.33152330;2023-02-15T03:44:25;9.30;56.40
9544;DHT22;30418;51.45933468;7.33152330;2023-02-15T03:47:01;9.30;56.40
9544;DHT22;30418;51.45933468;7.33152330;2023-02-15T03:49:38;9.30;56.40
9544;DHT22;30418;51.45933468;7.33152330;2023-02-15T03:52:11;9.30;56.40
9544;DHT22;30418;51.45933468;7.33152330;2023-02-15T03:54:40;9.30;56.40
9544;DHT22;30418;51.45933468;7.33152330;2023-02-15T03:57:20;9.30;56.40
9544;DHT22;30418;51.45933468;7.33152330;2023-02-15T04:00:14;9.20;56.40
9544;DHT22;30418;51.45933468;7.33152330;2023-02-15T04:03:11;9.20;56.30
9544;DHT22;30418;51.45933468;7.33152330;2023-02-15T04:05:45;9.20;56.40
9544;DHT22;30418;51.45933468;7.33152330;2023-02-15T04:08:15;9.20;56.40
9544;DHT22;30418;51.45933468;7.33152330;2023-02-15T04:10:43;9.20;56.40
9544;DHT22;30418;51.45933468;7.33152330;2023-02-15T04:13:20;9.20;56.40
9544;DHT22;30418;51.45933468;7.33152330;2023-02-15T04:15:49;9.20;56.40
9544;DHT22;30418;51.45933468;7.33152330;2023-02-15T04:18:37;9.20;56.40
9544;DHT22;30418;51.45933468;7.33152330;2023-02-15T04:21:25;9.20;56.40
9544;DHT22;30418;51.45933468;7.33152330;2023-02-15T04:24:14;9.20;56.50
9544;DHT22;30418;51.45933468;7.33152330;2023-02-15T04:27:01;9.20;56.50
9544;DHT22;30418;51.45933468;7.33152330;2023-02-15T04:29:31;9.10;56.40
9544;DHT22;30418;51.45933468;7.33152330;2023-02-15T04:32:01;9.10;56.40
9544;DHT22;30418;51.45933468;7.33152330;2023-02-15T04:34:30;9.10;56.50
9544;DHT22;30418;51.45933468;7.33152330;2023-02-15T04:36:58;9.10;56.50
9544;DHT22;30418;51.45933468;7.33152330;2023-02-15T04:39:28;9.10;56.50
9544;DHT22;30418;51.45933468;7.33152330;2023-02-15T04:41:59;9.10;56.60
9544;DHT22;30418;51.45933468;7.33152330;2023-02-15T04:44:28;9.00;56.50
9544;DHT22;30418;51.45933468;7.33152330;2023-02-15T04:46:56;9.00;56.60
9544;DHT22;30418;51.45933468;7.33152330;2023-02-15T04:49:25;9.00;56.50
9544;DHT22;30418;51.45933468;7.33152330;2023-02-15T04:51:53;9.00;56.60
9544;DHT22;30418;51.45933468;7.33152330;2023-02-15T04:54:22;9.00;56.60
9544;DHT22;30418;51.45933468;7.33152330;2023-02-15T04:56:51;9.00;56.70
9544;DHT22;30418;51.45933468;7.33152330;2023-02-15T04:59:20;8.90;56.60
9544;DHT22;30418;51.45933468;7.33152330;2023-02-15T05:01:48;8.90;56.60
9544;DHT22;30418;51.45933468;7.33152330;2023-02-15T05:04:17;8.90;56.70
9544;DHT22;30418;51.45933468;7.33152330;2023-02-15T05:06:45;8.90;56.60
9544;DHT22;30418;51.45933468;7.33152330;2023-02-15T05:09:14;8.90;56.60
9544;DHT22;30418;51.45933468;7.33152330;2023-02-15T05:11:43;8.90;56.70
9544;DHT22;30418;51.45933468;7.33152330;2023-02-15T05:14:13;8.90;56.70
9544;DHT22;30418;51.45933468;7.33152330;2023-02-15T05:16:41;8.80;56.60
9544;DHT22;30418;51.45933468;7.33152330;2023-02-15T05:19:10;8.80;56.60
9544;DHT22;30418;51.45933468;7.33152330;2023-02-15T05:21:38;8.80;56.60
9544;DHT22;30418;51.45933468;7.33152330;2023-02-15T05:24:07;8.80;56.60
9544;DHT22;30418;51.45933468;7.33152330;2023-02-15T05:26:50;8.80;56.60
9544;DHT22;30418;51.45933468;7.33152330;2023-02-15T05:29:37;8.80;56.60
9544;DHT22;30418;51.45933468;7.33152330;2023-02-15T05:32:06;8.80;56.60
9544;DHT22;30418;51.45933468;7.33152330;2023-02-15T05:34:35;8.80;56.60
9544;DHT22;30418;51.45933468;7.33152330;2023-02-15T05:37:03;8.70;56.50
9544;DHT22;30418;51.45933468;7.33152330;2023-02-15T05:39:32;8.70;56.60
9544;DHT22;30418;51.45933468;7.33152330;2023-02-15T05:42:00;8.70;56.70
9544;DHT22;30418;51.45933468;7.33152330;2023-02-15T05:44:29;8.70;56.70
9544;DHT22;30418;51.45933468;7.33152330;2023-02-15T05:46:59;8.70;56.70
9544;DHT22;30418;51.45933468;7.33152330;2023-02-15T05:49:29;8.70;56.70
9544;DHT22;30418;51.45933468;7.33152330;2023-02-15T05:51:58;8.70;56.70
9544;DHT22;30418;51.45933468;7.33152330;2023-02-15T05:54:26;8.60;56.60
9544;DHT22;30418;51.45933468;7.33152330;2023-02-15T05:56:55;8.60;56.70
9544;DHT22;30418;51.45933468;7.33152330;2023-02-15T05:59:24;8.60;56.70
9544;DHT22;30418;51.45933468;7.33152330;2023-02-15T06:01:52;8.60;56.70
9544;DHT22;30418;51.45933468;7.33152330;2023-02-15T06:04:22;8.70;56.70
9544;DHT22;30418;51.45933468;7.33152330;2023-02-15T06:06:51;8.60;56.70
9544;DHT22;30418;51.45933468;7.33152330;2023-02-15T06:09:19;8.60;56.70
9544;DHT22;30418;51.45933468;7.33152330;2023-02-15T06:11:48;8.60;56.80
9544;DHT22;30418;51.45933468;7.33152330;2023-02-15T06:14:16;8.60;56.80
9544;DHT22;30418;51.45933468;7.33152330;2023-02-15T06:16:45;8.60;56.80
9544;DHT22;30418;51.45933468;7.33152330;2023-02-15T06:19:14;8.50;56.80
9544;DHT22;30418;51.45933468;7.33152330;2023-02-15T06:21:44;8.50;56.80
9544;DHT22;30418;51.45933468;7.33152330;2023-02-15T06:24:12;8.50;56.80
9544;DHT22;30418;51.45933468;7.33152330;2023-02-15T06:26:41;8.50;56.80
9544;DHT22;30418;51.45933468;7.33152330;2023-02-15T06:29:09;8.50;56.80
9544;DHT22;30418;51.45933468;7.33152330;2023-02-15T06:31:38;8.50;56.90
9544;DHT22;30418;51.45933468;7.33152330;2023-02-15T06:34:06;8.50;56.90
9544;DHT22;30418;51.45933468;7.33152330;2023-02-15T06:36:36;8.50;57.00
9544;DHT22;30418;51.45933468;7.33152330;2023-02-15T06:39:06;8.50;57.00
9544;DHT22;30418;51.45933468;7.33152330;2023-02-15T06:41:34;8.50;57.00
9544;DHT22;30418;51.45933468;7.33152330;2023-02-15T06:44:03;8.50;57.00
9544;DHT22;30418;51.45933468;7.33152330;2023-02-15T06:46:32;8.50;57.00
9544;DHT22;30418;51.45933468;7.33152330;2023-02-15T06:49:01;8.50;57.00
9544;DHT22;30418;51.45933468;7.33152330;2023-02-15T06:51:29;8.50;57.00
9544;DHT22;30418;51.45933468;7.33152330;2023-02-15T06:53:57;8.50;57.00
9544;DHT22;30418;51.45933468;7.33152330;2023-02-15T06:56:27;8.40;56.90
9544;DHT22;30418;51.45933468;7.33152330;2023-02-15T06:58:56;8.40;57.00
9544;DHT22;30418;51.45933468;7.33152330;2023-02-15T07:01:25;8.40;57.00
9544;DHT22;30418;51.45933468;7.33152330;2023-02-15T07:03:54;8.40;57.00
9544;DHT22;30418;51.45933468;7.33152330;2023-02-15T07:06:22;8.40;57.00
9544;DHT22;30418;51.45933468;7.33152330;2023-02-15T07:08:50;8.40;57.00
9544;DHT22;30418;51.45933468;7.33152330;2023-02-15T07:11:19;8.40;57.00
9544;DHT22;30418;51.45933468;7.33152330;2023-02-15T07:14:06;8.40;57.10
9544;DHT22;30418;51.45933468;7.33152330;2023-02-15T07:16:35;8.40;57.10
9544;DHT22;30418;51.45933468;7.33152330;2023-02-15T07:19:04;8.40;57.10
9544;DHT22;30418;51.45933468;7.33152330;2023-02-15T07:21:34;8.40;57.10
9544;DHT22;30418;51.45933468;7.33152330;2023-02-15T07:24:03;8.40;57.10
9544;DHT22;30418;51.45933468;7.33152330;2023-02-15T07:26:32;8.40;57.10
9544;DHT22;30418;51.45933468;7.33152330;2023-02-15T07:29:00;8.40;57.20
9544;DHT22;30418;51.45933468;7.33152330;2023-02-15T07:31:31;8.40;57.20
9544;DHT22;30418;51.45933468;7.33152330;2023-02-15T07:33:59;8.40;57.20
9544;DHT22;30418;51.45933468;7.33152330;2023-02-15T07:36:28;8.40;57.20
9544;DHT22;30418;51.45933468;7.33152330;2023-02-15T07:38:56;8.40;57.20
9544;DHT22;30418;51.45933468;7.33152330;2023-02-15T07:41:24;8.40;57.20
9544;DHT22;30418;51.45933468;7.33152330;2023-02-15T07:43:53;8.40;57.20
9544;DHT22;30418;51.45933468;7.33152330;2023-02-15T07:46:21;8.40;57.30
9544;DHT22;30418;51.45933468;7.33152330;2023-02-15T07:48:51;8.40;57.30
9544;DHT22;30418;51.45933468;7.33152330;2023-02-15T07:51:20;8.50;57.40
9544;DHT22;30418;51.45933468;7.33152330;2023-02-15T07:53:48;8.50;57.40
9544;DHT22;30418;51.45933468;7.33152330;2023-02-15T07:56:18;8.50;57.40
9544;DHT22;30418;51.45933468;7.33152330;2023-02-15T07:58:46;8.50;57.40
9544;DHT22;30418;51.45933468;7.33152330;2023-02-15T08:01:24;8.50;57.40
9544;DHT22;30418;51.45933468;7.33152330;2023-02-15T08:03:55;8.50;57.50
9544;DHT22;30418;51.45933468;7.33152330;2023-02-15T08:06:28;8.60;57.60
9544;DHT22;30418;51.45933468;7.33152330;2023-02-15T08:08:58;8.60;57.60
9544;DHT22;30418;51.45933468;7.33152330;2023-02-15T08:11:29;8.60;57.60
9544;DHT22;30418;51.45933468;7.33152330;2023-02-15T08:14:05;8.60;57.60
9544;DHT22;30418;51.45933468;7.33152330;2023-02-15T08:16:36;8.70;57.70
9544;DHT22;30418;51.45933468;7.33152330;2023-02-15T08:19:10;8.70;57.80
9544;DHT22;30418;51.45933468;7.33152330;2023-02-15T08:21:41;8.70;57.70
9544;DHT22;30418;51.45933468;7.33152330;2023-02-15T08:24:11;8.70;57.70
9544;DHT22;30418;51.45933468;7.33152330;2023-02-15T08:26:41;8.80;57.80
9544;DHT22;30418;51.45933468;7.33152330;2023-02-15T08:29:12;8.80;57.80
9544;DHT22;30418;51.45933468;7.33152330;2023-02-15T08:31:41;8.90;57.80
9544;DHT22;30418;51.45933468;7.33152330;2023-02-15T08:34:14;8.90;57.80
9544;DHT22;30418;51.45933468;7.33152330;2023-02-15T08:36:44;8.90;57.80
9544;DHT22;30418;51.45933468;7.33152330;2023-02-15T08:39:14;9.00;57.90
9544;DHT22;30418;51.45933468;7.33152330;2023-02-15T08:41:45;9.00;57.80
9544;DHT22;30418;51.45933468;7.33152330;2023-02-15T08:44:17;9.00;57.80
9544;DHT22;30418;51.45933468;7.33152330;2023-02-15T08:46:48;9.10;57.80
9544;DHT22;30418;51.45933468;7.33152330;2023-02-15T08:49:20;9.10;57.80
9544;DHT22;30418;51.45933468;7.33152330;2023-02-15T08:51:49;9.20;57.80
9544;DHT22;30418;51.45933468;7.33152330;2023-02-15T08:54:20;9.20;57.70
9544;DHT22;30418;51.45933468;7.33152330;2023-02-15T08:56:49;9.30;57.80
9544;DHT22;30418;51.45933468;7.33152330;2023-02-15T08:59:19;9.30;57.80
9544;DHT22;30418;51.45933468;7.33152330;2023-02-15T09:01:50;9.40;57.80
9544;DHT22;30418;51.45933468;7.33152330;2023-02-15T09:04:21;9.40;57.80
9544;DHT22;30418;51.45933468;7.33152330;2023-02-15T09:06:50;9.40;57.90
9544;DHT22;30418;51.45933468;7.33152330;2023-02-15T09:09:19;9.50;57.80
9544;DHT22;30418;51.45933468;7.33152330;2023-02-15T09:11:50;9.50;57.80
9544;DHT22;30418;51.45933468;7.33152330;2023-02-15T09:14:26;9.60;57.80
9544;DHT22;30418;51.45933468;7.33152330;2023-02-15T09:16:54;9.70;57.80
9544;DHT22;30418;51.45933468;7.33152330;2023-02-15T09:19:25;9.70;57.80
9544;DHT22;30418;51.45933468;7.33152330;2023-02-15T09:21:53;9.80;57.80
9544;DHT22;30418;51.45933468;7.33152330;2023-02-15T09:24:22;9.80;57.80
9544;DHT22;30418;51.45933468;7.33152330;2023-02-15T09:26:50;9.90;58.50
9544;DHT22;30418;51.45933468;7.33152330;2023-02-15T09:29:19;10.00;57.00
9544;DHT22;30418;51.45933468;7.33152330;2023-02-15T09:31:50;10.00;57.00
9544;DHT22;30418;51.45933468;7.33152330;2023-02-15T09:34:21;10.10;56.90
9544;DHT22;30418;51.45933468;7.33152330;2023-02-15T09:36:51;10.20;56.90
9544;DHT22;30418;51.45933468;7.33152330;2023-02-15T09:39:21;10.20;56.80
9544;DHT22;30418;51.45933468;7.33152330;2023-02-15T09:45:20;10.40;56.90
9544;DHT22;30418;51.45933468;7.33152330;2023-02-15T09:51:29;10.50;56.70
9544;DHT22;30418;51.45933468;7.33152330;2023-02-15T09:54:27;10.60;56.70
9544;DHT22;30418;51.45933468;7.33152330;2023-02-15T09:57:05;10.60;56.80
9544;DHT22;30418;51.45933468;7.33152330;2023-02-15T09:59:47;10.70;56.90
9544;DHT22;30418;51.45933468;7.33152330;2023-02-15T10:02:31;10.80;56.70
9544;DHT22;30418;51.45933468;7.33152330;2023-02-15T10:05:12;10.80;56.70
9544;DHT22;30418;51.45933468;7.33152330;2023-02-15T10:08:05;10.90;56.70
9544;DHT22;30418;51.45933468;7.33152330;2023-02-15T10:10:50;11.00;56.70
9544;DHT22;30418;51.45933468;7.33152330;2023-02-15T10:13:53;11.00;56.70
9544;DHT22;30418;51.45933468;7.33152330;2023-02-15T10:16:37;11.10;56.70
9544;DHT22;30418;51.45933468;7.33152330;2023-02-15T10:19:18;11.20;56.70
9544;DHT22;30418;51.45933468;7.33152330;2023-02-15T10:21:59;11.20;56.70
9544;DHT22;30418;51.45933468;7.33152330;2023-02-15T10:24:45;11.30;56.70
9544;DHT22;30418;51.45933468;7.33152330;2023-02-15T10:27:23;11.40;56.60
9544;DHT22;30418;51.45933468;7.33152330;2023-02-15T10:30:00;11.40;56.70
9544;DHT22;30418;51.45933468;7.33152330;2023-02-15T10:32:36;11.50;56.60
9544;DHT22;30418;51.45933468;7.33152330;2023-02-15T10:35:15;11.60;56.60
9544;DHT22;30418;51.45933468;7.33152330;2023-02-15T10:37:57;11.60;56.40
9544;DHT22;30418;51.45933468;7.33152330;2023-02-15T10:40:42;11.70;56.40
9544;DHT22;30418;51.45933468;7.33152330;2023-02-15T10:43:25;11.70;56.40
9544;DHT22;30418;51.45933468;7.33152330;2023-02-15T10:46:08;11.80;56.40
9544;DHT22;30418;51.45933468;7.33152330;2023-02-15T10:49:00;11.80;56.30
9544;DHT22;30418;51.45933468;7.33152330;2023-02-15T10:51:47;11.90;56.20
9544;DHT22;30418;51.45933468;7.33152330;2023-02-15T10:54:27;12.00;56.30
9544;DHT22;30418;51.45933468;7.33152330;2023-02-15T10:57:04;12.00;56.20
9544;DHT22;30418;51.45933468;7.33152330;2023-02-15T10:59:58;12.10;56.30
9544;DHT22;30418;51.45933468;7.33152330;2023-02-15T11:02:45;12.10;56.00
9544;DHT22;30418;51.45933468;7.33152330;2023-02-15T11:05:30;12.20;56.00
9544;DHT22;30418;51.45933468;7.33152330;2023-02-15T11:08:11;12.30;56.10
9544;DHT22;30418;51.45933468;7.33152330;2023-02-15T11:10:44;12.30;56.10
9544;DHT22;30418;51.45933468;7.33152330;2023-02-15T11:13:17;12.40;55.90
9544;DHT22;30418;51.45933468;7.33152330;2023-02-15T11:15:51;12.40;55.90
9544;DHT22;30418;51.45933468;7.33152330;2023-02-15T11:18:25;12.50;55.80
9544;DHT22;30418;51.45933468;7.33152330;2023-02-15T11:20:59;12.50;55.70
9544;DHT22;30418;51.45933468;7.33152330;2023-02-15T11:23:32;12.60;55.60
9544;DHT22;30418;51.45933468;7.33152330;2023-02-15T11:26:04;12.70;55.70
9544;DHT22;30418;51.45933468;7.33152330;2023-02-15T11:28:41;12.70;55.60
9544;DHT22;30418;51.45933468;7.33152330;2023-02-15T11:31:14;12.80;55.60
9544;DHT22;30418;51.45933468;7.33152330;2023-02-15T11:33:47;12.80;55.50
9544;DHT22;30418;51.45933468;7.33152330;2023-02-15T11:36:22;12.90;55.50
9544;DHT22;30418;51.45933468;7.33152330;2023-02-15T11:38:57;13.00;55.40
9544;DHT22;30418;51.45933468;7.33152330;2023-02-15T11:41:33;13.00;55.20
9544;DHT22;30418;51.45933468;7.33152330;2023-02-15T11:44:11;13.10;55.20
9544;DHT22;30418;51.45933468;7.33152330;2023-02-15T11:46:43;13.10;55.10
9544;DHT22;30418;51.45933468;7.33152330;2023-02-15T11:49:22;13.10;55.20
9544;DHT22;30418;51.45933468;7.33152330;2023-02-15T11:51:52;13.20;54.90
9544;DHT22;30418;51.45933468;7.33152330;2023-02-15T11:54:25;13.30;55.10
9544;DHT22;30418;51.45933468;7.33152330;2023-02-15T11:56:59;13.30;54.90
9544;DHT22;30418;51.45933468;7.33152330;2023-02-15T11:59:34;13.40;55.00
9544;DHT22;30418;51.45933468;7.33152330;2023-02-15T12:02:14;13.40;54.80
9544;DHT22;30418;51.45933468;7.33152330;2023-02-15T12:04:49;13.50;54.70
9544;DHT22;30418;51.45933468;7.33152330;2023-02-15T12:07:24;13.50;54.70
9544;DHT22;30418;51.45933468;7.33152330;2023-02-15T12:10:00;13.60;54.70
9544;DHT22;30418;51.45933468;7.33152330;2023-02-15T12:12:35;13.60;54.60
9544;DHT22;30418;51.45933468;7.33152330;2023-02-15T12:15:08;13.70;54.60
9544;DHT22;30418;51.45933468;7.33152330;2023-02-15T12:17:39;13.70;54.50
9544;DHT22;30418;51.45933468;7.33152330;2023-02-15T12:20:23;13.70;54.40
9544;DHT22;30418;51.45933468;7.33152330;2023-02-15T12:22:55;13.80;54.10
9544;DHT22;30418;51.45933468;7.33152330;2023-02-15T12:25:35;13.80;54.30
9544;DHT22;30418;51.45933468;7.33152330;2023-02-15T12:28:20;13.90;54.80
9544;DHT22;30418;51.45933468;7.33152330;2023-02-15T12:30:54;13.90;53.70
9544;DHT22;30418;51.45933468;7.33152330;2023-02-15T12:33:28;13.90;53.80
9544;DHT22;30418;51.45933468;7.33152330;2023-02-15T12:36:01;13.90;53.60
9544;DHT22;30418;51.45933468;7.33152330;2023-02-15T12:38:34;14.00;53.80
9544;DHT22;30418;51.45933468;7.33152330;2023-02-15T12:41:04;14.00;53.80
9544;DHT22;30418;51.45933468;7.33152330;2023-02-15T12:43:38;14.00;53.60
9544;DHT22;30418;51.45933468;7.33152330;2023-02-15T12:46:21;14.00;53.60
9544;DHT22;30418;51.45933468;7.33152330;2023-02-15T12:49:14;14.10;53.20
9544;DHT22;30418;51.45933468;7.33152330;2023-02-15T12:51:49;14.10;53.10
9544;DHT22;30418;51.45933468;7.33152330;2023-02-15T12:54:30;14.10;53.40
9544;DHT22;30418;51.45933468;7.33152330;2023-02-15T12:57:14;14.20;53.00
9544;DHT22;30418;51.45933468;7.33152330;2023-02-15T12:59:51;14.20;52.90
9544;DHT22;30418;51.45933468;7.33152330;2023-02-15T13:02:25;14.20;53.30
9544;DHT22;30418;51.45933468;7.33152330;2023-02-15T13:04:57;14.30;53.20
9544;DHT22;30418;51.45933468;7.33152330;2023-02-15T13:07:33;14.30;53.20
9544;DHT22;30418;51.45933468;7.33152330;2023-02-15T13:10:02;14.40;53.40
9544;DHT22;30418;51.45933468;7.33152330;2023-02-15T13:12:31;14.40;53.30
9544;DHT22;30418;51.45933468;7.33152330;2023-02-15T13:15:01;14.40;53.20
9544;DHT22;30418;51.45933468;7.33152330;2023-02-15T13:17:33;14.50;53.20
9544;DHT22;30418;51.45933468;7.33152330;2023-02-15T13:20:04;14.50;53.00
9544;DHT22;30418;51.45933468;7.33152330;2023-02-15T13:22:40;14.50;52.90
9544;DHT22;30418;51.45933468;7.33152330;2023-02-15T13:25:14;14.60;52.90
9544;DHT22;30418;51.45933468;7.33152330;2023-02-15T13:27:51;14.60;52.90
9544;DHT22;30418;51.45933468;7.33152330;2023-02-15T13:30:25;14.70;52.90
9544;DHT22;30418;51.45933468;7.33152330;2023-02-15T13:33:02;14.70;52.90
9544;DHT22;30418;51.45933468;7.33152330;2023-02-15T13:35:38;14.80;52.90
9544;DHT22;30418;51.45933468;7.33152330;2023-02-15T13:41:14;14.90;52.50
9544;DHT22;30418;51.45933468;7.33152330;2023-02-15T13:43:52;14.90;52.50
9544;DHT22;30418;51.45933468;7.33152330;2023-02-15T13:46:48;15.00;52.30
9544;DHT22;30418;51.45933468;7.33152330;2023-02-15T13:49:32;15.00;51.90
9544;DHT22;30418;51.45933468;7.33152330;2023-02-15T13:52:16;15.00;52.00
9544;DHT22;30418;51.45933468;7.33152330;2023-02-15T13:55:02;15.00;52.10
9544;DHT22;30418;51.45933468;7.33152330;2023-02-15T13:57:49;15.10;52.10
9544;DHT22;30418;51.45933468;7.33152330;2023-02-15T14:00:33;15.10;52.00
9544;DHT22;30418;51.45933468;7.33152330;2023-02-15T14:03:27;15.20;52.10
9544;DHT22;30418;51.45933468;7.33152330;2023-02-15T14:06:21;15.20;51.80
9544;DHT22;30418;51.45933468;7.33152330;2023-02-15T14:09:07;15.30;51.80
9544;DHT22;30418;51.45933468;7.33152330;2023-02-15T14:11:44;15.30;51.80
9544;DHT22;30418;51.45933468;7.33152330;2023-02-15T14:17:36;15.40;51.40
9544;DHT22;30418;51.45933468;7.33152330;2023-02-15T14:20:20;15.40;51.40
9544;DHT22;30418;51.45933468;7.33152330;2023-02-15T14:22:55;15.40;51.40
9544;DHT22;30418;51.45933468;7.33152330;2023-02-15T14:25:35;15.40;51.30
9544;DHT22;30418;51.45933468;7.33152330;2023-02-15T14:28:11;15.50;51.30
9544;DHT22;30418;51.45933468;7.33152330;2023-02-15T14:30:43;15.50;51.20
9544;DHT22;30418;51.45933468;7.33152330;2023-02-15T14:33:29;15.50;51.20